sensor_id;sensor_type;location;lat;lon;timestamp;P1;durP1;ratioP1;P2;durP2;ratioP2
32321;SDS011;61553;48.994;8.940;2023-10-08T00:01:18;6.57;;;3.22;;
32321;SDS011;61553;48.994;8.940;2023-10-08T00:03:44;7.55;;;3.47;;
32321;SDS011;61553;48.994;8.940;2023-10-08T00:06:16;11.25;;;3.35;;
32321;SDS011;61553;48.994;8.940;2023-10-08T00:08:45;7.97;;;3.08;;
32321;SDS011;61553;48.994;8.940;2023-10-08T00:11:11;7.38;;;3.30;;
32321;SDS011;61553;48.994;8.940;2023-10-08T00:13:36;7.47;;;2.95;;
32321;SDS011;61553;48.994;8.940;2023-10-08T00:16:06;7.40;;;3.47;;
32321;SDS011;61553;48.994;8.940;2023-10-08T00:18:36;8.57;;;3.20;;
32321;SDS011;61553;48.994;8.940;2023-10-08T00:21:05;7.38;;;3.30;;
32321;SDS011;61553;48.994;8.940;2023-10-08T00:23:37;13.02;;;3.30;;
32321;SDS011;61553;48.994;8.940;2023-10-08T00:26:35;8.02;;;3.25;;
32321;SDS011;61553;48.994;8.940;2023-10-08T00:29:05;6.93;;;3.05;;
32321;SDS011;61553;48.994;8.940;2023-10-08T00:31:41;10.63;;;3.15;;
32321;SDS011;61553;48.994;8.940;2023-10-08T00:34:09;7.50;;;2.67;;
32321;SDS011;61553;48.994;8.940;2023-10-08T00:36:37;7.97;;;3.38;;
32321;SDS011;61553;48.994;8.940;2023-10-08T00:39:04;8.07;;;3.45;;
32321;SDS011;61553;48.994;8.940;2023-10-08T00:41:48;6.03;;;2.78;;
32321;SDS011;61553;48.994;8.940;2023-10-08T00:44:15;7.93;;;3.40;;
32321;SDS011;61553;48.994;8.940;2023-10-08T00:46:47;8.63;;;3.28;;
32321;SDS011;61553;48.994;8.940;2023-10-08T00:49:15;9.63;;;3.22;;
32321;SDS011;61553;48.994;8.940;2023-10-08T00:52:02;8.25;;;3.05;;
32321;SDS011;61553;48.994;8.940;2023-10-08T00:54:35;7.78;;;2.97;;
32321;SDS011;61553;48.994;8.940;2023-10-08T00:57:27;8.55;;;3.17;;
32321;SDS011;61553;48.994;8.940;2023-10-08T00:59:54;7.22;;;3.15;;
32321;SDS011;61553;48.994;8.940;2023-10-08T01:02:25;8.30;;;3.30;;
32321;SDS011;61553;48.994;8.940;2023-10-08T01:04:52;6.57;;;3.15;;
32321;SDS011;61553;48.994;8.940;2023-10-08T01:07:19;8.35;;;3.08;;
32321;SDS011;61553;48.994;8.940;2023-10-08T01:09:46;8.60;;;3.08;;
32321;SDS011;61553;48.994;8.940;2023-10-08T01:14:55;9.35;;;3.13;;
32321;SDS011;61553;48.994;8.940;2023-10-08T01:17:29;9.73;;;3.42;;
32321;SDS011;61553;48.994;8.940;2023-10-08T01:19:57;9.95;;;3.50;;
32321;SDS011;61553;48.994;8.940;2023-10-08T01:22:43;10.82;;;2.92;;
32321;SDS011;61553;48.994;8.940;2023-10-08T01:25:09;8.88;;;3.35;;
32321;SDS011;61553;48.994;8.940;2023-10-08T01:27:35;6.53;;;2.72;;
32321;SDS011;61553;48.994;8.940;2023-10-08T01:30:02;7.45;;;2.97;;
32321;SDS011;61553;48.994;8.940;2023-10-08T01:32:43;8.32;;;3.35;;
32321;SDS011;61553;48.994;8.940;2023-10-08T01:35:09;7.88;;;3.20;;
32321;SDS011;61553;48.994;8.940;2023-10-08T01:37:51;8.27;;;3.05;;
32321;SDS011;61553;48.994;8.940;2023-10-08T01:40:18;6.90;;;3.17;;
32321;SDS011;61553;48.994;8.940;2023-10-08T01:42:44;10.57;;;3.00;;
32321;SDS011;61553;48.994;8.940;2023-10-08T01:45:11;8.38;;;3.42;;
32321;SDS011;61553;48.994;8.940;2023-10-08T01:47:43;10.95;;;3.25;;
32321;SDS011;61553;48.994;8.940;2023-10-08T01:50:09;8.63;;;3.17;;
32321;SDS011;61553;48.994;8.940;2023-10-08T01:52:46;6.88;;;3.25;;
32321;SDS011;61553;48.994;8.940;2023-10-08T01:55:12;8.70;;;3.65;;
32321;SDS011;61553;48.994;8.940;2023-10-08T01:57:43;8.10;;;3.13;;
32321;SDS011;61553;48.994;8.940;2023-10-08T02:00:12;9.43;;;3.47;;
32321;SDS011;61553;48.994;8.940;2023-10-08T02:05:15;7.80;;;3.40;;
32321;SDS011;61553;48.994;8.940;2023-10-08T02:07:43;7.47;;;3.08;;
32321;SDS011;61553;48.994;8.940;2023-10-08T02:10:12;12.20;;;5.53;;
32321;SDS011;61553;48.994;8.940;2023-10-08T02:12:39;7.40;;;3.28;;
32321;SDS011;61553;48.994;8.940;2023-10-08T02:15:06;8.55;;;3.55;;
32321;SDS011;61553;48.994;8.940;2023-10-08T02:17:32;7.38;;;2.90;;
32321;SDS011;61553;48.994;8.940;2023-10-08T02:19:59;8.57;;;3.20;;
32321;SDS011;61553;48.994;8.940;2023-10-08T02:22:24;11.82;;;3.53;;
32321;SDS011;61553;48.994;8.940;2023-10-08T02:24:50;7.47;;;3.20;;
32321;SDS011;61553;48.994;8.940;2023-10-08T02:27:18;8.45;;;3.20;;
32321;SDS011;61553;48.994;8.940;2023-10-08T02:29:44;8.15;;;3.20;;
32321;SDS011;61553;48.994;8.940;2023-10-08T02:32:10;7.43;;;3.53;;
32321;SDS011;61553;48.994;8.940;2023-10-08T02:34:35;7.53;;;3.42;;
32321;SDS011;61553;48.994;8.940;2023-10-08T02:37:01;11.00;;;3.40;;
32321;SDS011;61553;48.994;8.940;2023-10-08T02:39:28;13.73;;;3.22;;
32321;SDS011;61553;48.994;8.940;2023-10-08T02:41:56;6.90;;;3.22;;
32321;SDS011;61553;48.994;8.940;2023-10-08T02:44:24;11.77;;;3.47;;
32321;SDS011;61553;48.994;8.940;2023-10-08T02:46:51;7.97;;;3.10;;
32321;SDS011;61553;48.994;8.940;2023-10-08T02:49:20;9.10;;;3.70;;
32321;SDS011;61553;48.994;8.940;2023-10-08T02:51:51;9.73;;;3.15;;
32321;SDS011;61553;48.994;8.940;2023-10-08T02:54:18;7.50;;;2.92;;
32321;SDS011;61553;48.994;8.940;2023-10-08T02:56:50;7.50;;;3.22;;
32321;SDS011;61553;48.994;8.940;2023-10-08T02:59:17;7.28;;;2.90;;
32321;SDS011;61553;48.994;8.940;2023-10-08T03:01:48;8.35;;;3.40;;
32321;SDS011;61553;48.994;8.940;2023-10-08T03:04:15;6.93;;;2.95;;
32321;SDS011;61553;48.994;8.940;2023-10-08T03:06:46;6.68;;;3.17;;
32321;SDS011;61553;48.994;8.940;2023-10-08T03:09:19;7.45;;;2.95;;
32321;SDS011;61553;48.994;8.940;2023-10-08T03:11:48;7.15;;;3.22;;
32321;SDS011;61553;48.994;8.940;2023-10-08T03:14:16;8.25;;;3.22;;
32321;SDS011;61553;48.994;8.940;2023-10-08T03:16:51;8.02;;;3.20;;
32321;SDS011;61553;48.994;8.940;2023-10-08T03:19:21;8.75;;;3.38;;
32321;SDS011;61553;48.994;8.940;2023-10-08T03:21:48;9.40;;;3.70;;
32321;SDS011;61553;48.994;8.940;2023-10-08T03:24:18;8.40;;;3.40;;
32321;SDS011;61553;48.994;8.940;2023-10-08T03:27:02;6.65;;;3.30;;
32321;SDS011;61553;48.994;8.940;2023-10-08T03:29:36;8.40;;;2.97;;
32321;SDS011;61553;48.994;8.940;2023-10-08T03:32:11;8.32;;;3.22;;
32321;SDS011;61553;48.994;8.940;2023-10-08T03:34:48;9.00;;;3.30;;
32321;SDS011;61553;48.994;8.940;2023-10-08T03:37:15;9.65;;;3.47;;
32321;SDS011;61553;48.994;8.940;2023-10-08T03:39:49;8.38;;;3.10;;
32321;SDS011;61553;48.994;8.940;2023-10-08T03:42:19;11.32;;;3.38;;
32321;SDS011;61553;48.994;8.940;2023-10-08T03:44:46;6.80;;;3.35;;
32321;SDS011;61553;48.994;8.940;2023-10-08T03:47:16;7.13;;;2.80;;
32321;SDS011;61553;48.994;8.940;2023-10-08T03:49:44;8.30;;;3.00;;
32321;SDS011;61553;48.994;8.940;2023-10-08T03:52:11;9.43;;;3.20;;
32321;SDS011;61553;48.994;8.940;2023-10-08T03:54:38;7.35;;;3.17;;
32321;SDS011;61553;48.994;8.940;2023-10-08T03:57:08;9.07;;;3.60;;
32321;SDS011;61553;48.994;8.940;2023-10-08T03:59:54;8.05;;;3.17;;
32321;SDS011;61553;48.994;8.940;2023-10-08T04:02:23;8.50;;;2.85;;
32321;SDS011;61553;48.994;8.940;2023-10-08T04:05:05;9.90;;;3.63;;
32321;SDS011;61553;48.994;8.940;2023-10-08T04:07:44;6.55;;;3.20;;
32321;SDS011;61553;48.994;8.940;2023-10-08T04:10:30;8.85;;;3.35;;
32321;SDS011;61553;48.994;8.940;2023-10-08T04:13:06;6.40;;;3.05;;
32321;SDS011;61553;48.994;8.940;2023-10-08T04:15:37;6.50;;;3.40;;
32321;SDS011;61553;48.994;8.940;2023-10-08T04:18:09;6.85;;;2.85;;
32321;SDS011;61553;48.994;8.940;2023-10-08T04:20:36;9.85;;;3.50;;
32321;SDS011;61553;48.994;8.940;2023-10-08T04:23:03;10.02;;;3.03;;
32321;SDS011;61553;48.994;8.940;2023-10-08T04:25:46;6.70;;;3.00;;
32321;SDS011;61553;48.994;8.940;2023-10-08T04:28:19;11.25;;;3.58;;
32321;SDS011;61553;48.994;8.940;2023-10-08T04:30:45;7.25;;;3.30;;
32321;SDS011;61553;48.994;8.940;2023-10-08T04:33:15;8.07;;;3.10;;
32321;SDS011;61553;48.994;8.940;2023-10-08T04:35:44;8.48;;;3.05;;
32321;SDS011;61553;48.994;8.940;2023-10-08T04:38:14;9.48;;;2.88;;
32321;SDS011;61553;48.994;8.940;2023-10-08T04:40:43;8.50;;;3.38;;
32321;SDS011;61553;48.994;8.940;2023-10-08T04:43:17;10.68;;;3.65;;
32321;SDS011;61553;48.994;8.940;2023-10-08T04:45:53;10.25;;;3.63;;
32321;SDS011;61553;48.994;8.940;2023-10-08T04:48:43;9.90;;;3.58;;
32321;SDS011;61553;48.994;8.940;2023-10-08T04:51:09;8.13;;;3.03;;
32321;SDS011;61553;48.994;8.940;2023-10-08T04:53:37;9.25;;;3.80;;
32321;SDS011;61553;48.994;8.940;2023-10-08T04:56:06;9.90;;;3.83;;
32321;SDS011;61553;48.994;8.940;2023-10-08T04:58:39;8.90;;;4.05;;
32321;SDS011;61553;48.994;8.940;2023-10-08T05:01:09;8.98;;;3.88;;
32321;SDS011;61553;48.994;8.940;2023-10-08T05:03:57;8.85;;;3.65;;
32321;SDS011;61553;48.994;8.940;2023-10-08T05:06:23;8.52;;;3.25;;
32321;SDS011;61553;48.994;8.940;2023-10-08T05:09:05;9.43;;;3.55;;
32321;SDS011;61553;48.994;8.940;2023-10-08T05:11:43;8.90;;;3.88;;
32321;SDS011;61553;48.994;8.940;2023-10-08T05:14:16;11.80;;;4.38;;
32321;SDS011;61553;48.994;8.940;2023-10-08T05:16:58;10.23;;;4.15;;
32321;SDS011;61553;48.994;8.940;2023-10-08T05:19:43;8.00;;;3.97;;
32321;SDS011;61553;48.994;8.940;2023-10-08T05:22:41;9.70;;;3.72;;
32321;SDS011;61553;48.994;8.940;2023-10-08T05:25:09;8.23;;;3.90;;
32321;SDS011;61553;48.994;8.940;2023-10-08T05:27:42;9.17;;;3.60;;
32321;SDS011;61553;48.994;8.940;2023-10-08T05:30:12;8.10;;;3.88;;
32321;SDS011;61553;48.994;8.940;2023-10-08T05:32:44;10.32;;;4.20;;
32321;SDS011;61553;48.994;8.940;2023-10-08T05:35:28;8.35;;;3.97;;
32321;SDS011;61553;48.994;8.940;2023-10-08T05:38:17;11.30;;;4.03;;
32321;SDS011;61553;48.994;8.940;2023-10-08T05:40:48;9.70;;;4.45;;
32321;SDS011;61553;48.994;8.940;2023-10-08T05:43:21;8.45;;;4.05;;
32321;SDS011;61553;48.994;8.940;2023-10-08T05:46:11;7.93;;;3.60;;
32321;SDS011;61553;48.994;8.940;2023-10-08T05:48:47;9.15;;;3.83;;
32321;SDS011;61553;48.994;8.940;2023-10-08T05:51:27;8.63;;;3.42;;
32321;SDS011;61553;48.994;8.940;2023-10-08T05:54:21;10.45;;;4.22;;
32321;SDS011;61553;48.994;8.940;2023-10-08T05:57:04;8.77;;;3.72;;
32321;SDS011;61553;48.994;8.940;2023-10-08T05:59:37;14.20;;;4.55;;
32321;SDS011;61553;48.994;8.940;2023-10-08T06:02:17;11.18;;;5.22;;
32321;SDS011;61553;48.994;8.940;2023-10-08T06:04:53;15.98;;;4.47;;
32321;SDS011;61553;48.994;8.940;2023-10-08T06:07:39;11.18;;;4.22;;
32321;SDS011;61553;48.994;8.940;2023-10-08T06:10:20;11.43;;;4.93;;
32321;SDS011;61553;48.994;8.940;2023-10-08T06:13:06;11.55;;;4.35;;
32321;SDS011;61553;48.994;8.940;2023-10-08T06:18:13;10.88;;;4.10;;
32321;SDS011;61553;48.994;8.940;2023-10-08T06:20:43;12.15;;;3.80;;
32321;SDS011;61553;48.994;8.940;2023-10-08T06:23:10;9.05;;;4.43;;
32321;SDS011;61553;48.994;8.940;2023-10-08T06:25:46;10.90;;;4.85;;
32321;SDS011;61553;48.994;8.940;2023-10-08T06:28:16;10.73;;;4.60;;
32321;SDS011;61553;48.994;8.940;2023-10-08T06:30:48;12.55;;;5.18;;
32321;SDS011;61553;48.994;8.940;2023-10-08T06:33:20;9.82;;;5.00;;
32321;SDS011;61553;48.994;8.940;2023-10-08T06:35:47;11.98;;;6.10;;
32321;SDS011;61553;48.994;8.940;2023-10-08T06:38:38;11.43;;;6.03;;
32321;SDS011;61553;48.994;8.940;2023-10-08T06:41:07;13.38;;;7.00;;
32321;SDS011;61553;48.994;8.940;2023-10-08T06:43:35;14.50;;;6.15;;
32321;SDS011;61553;48.994;8.940;2023-10-08T06:46:04;12.35;;;5.68;;
32321;SDS011;61553;48.994;8.940;2023-10-08T06:48:37;15.50;;;7.85;;
32321;SDS011;61553;48.994;8.940;2023-10-08T06:51:07;14.23;;;6.05;;
32321;SDS011;61553;48.994;8.940;2023-10-08T06:53:38;13.93;;;7.18;;
32321;SDS011;61553;48.994;8.940;2023-10-08T06:56:04;19.90;;;9.50;;
32321;SDS011;61553;48.994;8.940;2023-10-08T06:58:30;22.30;;;12.55;;
32321;SDS011;61553;48.994;8.940;2023-10-08T07:01:00;19.65;;;10.85;;
32321;SDS011;61553;48.994;8.940;2023-10-08T07:03:33;28.52;;;16.00;;
32321;SDS011;61553;48.994;8.940;2023-10-08T07:06:00;17.50;;;8.27;;
32321;SDS011;61553;48.994;8.940;2023-10-08T07:08:41;13.32;;;6.28;;
32321;SDS011;61553;48.994;8.940;2023-10-08T07:11:11;17.27;;;7.82;;
32321;SDS011;61553;48.994;8.940;2023-10-08T07:13:39;28.40;;;15.25;;
32321;SDS011;61553;48.994;8.940;2023-10-08T07:16:07;25.00;;;13.15;;
32321;SDS011;61553;48.994;8.940;2023-10-08T07:18:36;22.95;;;12.80;;
32321;SDS011;61553;48.994;8.940;2023-10-08T07:21:07;23.08;;;12.55;;
32321;SDS011;61553;48.994;8.940;2023-10-08T07:23:39;23.20;;;10.38;;
32321;SDS011;61553;48.994;8.940;2023-10-08T07:26:21;13.98;;;5.57;;
32321;SDS011;61553;48.994;8.940;2023-10-08T07:28:49;26.00;;;13.27;;
32321;SDS011;61553;48.994;8.940;2023-10-08T07:31:21;15.60;;;7.07;;
32321;SDS011;61553;48.994;8.940;2023-10-08T07:33:49;12.75;;;6.55;;
32321;SDS011;61553;48.994;8.940;2023-10-08T07:36:22;12.18;;;5.57;;
32321;SDS011;61553;48.994;8.940;2023-10-08T07:38:56;8.48;;;4.47;;
32321;SDS011;61553;48.994;8.940;2023-10-08T07:41:22;11.90;;;7.00;;
32321;SDS011;61553;48.994;8.940;2023-10-08T07:43:48;13.02;;;7.60;;
32321;SDS011;61553;48.994;8.940;2023-10-08T07:46:23;8.90;;;5.05;;
32321;SDS011;61553;48.994;8.940;2023-10-08T07:48:55;9.68;;;5.22;;
32321;SDS011;61553;48.994;8.940;2023-10-08T07:51:23;10.00;;;4.65;;
32321;SDS011;61553;48.994;8.940;2023-10-08T07:53:51;11.68;;;5.95;;
32321;SDS011;61553;48.994;8.940;2023-10-08T07:56:20;14.40;;;5.65;;
32321;SDS011;61553;48.994;8.940;2023-10-08T07:58:47;13.18;;;5.07;;
32321;SDS011;61553;48.994;8.940;2023-10-08T08:01:13;11.60;;;5.15;;
32321;SDS011;61553;48.994;8.940;2023-10-08T08:03:39;8.45;;;4.43;;
32321;SDS011;61553;48.994;8.940;2023-10-08T08:06:07;11.15;;;5.10;;
32321;SDS011;61553;48.994;8.940;2023-10-08T08:08:34;9.02;;;4.40;;
32321;SDS011;61553;48.994;8.940;2023-10-08T08:11:07;8.30;;;3.70;;
32321;SDS011;61553;48.994;8.940;2023-10-08T08:13:42;9.43;;;4.32;;
32321;SDS011;61553;48.994;8.940;2023-10-08T08:16:10;9.40;;;4.50;;
32321;SDS011;61553;48.994;8.940;2023-10-08T08:18:43;7.60;;;3.88;;
32321;SDS011;61553;48.994;8.940;2023-10-08T08:21:10;8.45;;;3.63;;
32321;SDS011;61553;48.994;8.940;2023-10-08T08:23:41;8.13;;;3.40;;
32321;SDS011;61553;48.994;8.940;2023-10-08T08:26:12;12.05;;;3.60;;
32321;SDS011;61553;48.994;8.940;2023-10-08T08:28:51;9.20;;;3.88;;
32321;SDS011;61553;48.994;8.940;2023-10-08T08:31:29;7.80;;;3.60;;
32321;SDS011;61553;48.994;8.940;2023-10-08T08:34:00;9.02;;;3.33;;
32321;SDS011;61553;48.994;8.940;2023-10-08T08:36:39;6.55;;;3.63;;
32321;SDS011;61553;48.994;8.940;2023-10-08T08:39:11;7.22;;;3.15;;
32321;SDS011;61553;48.994;8.940;2023-10-08T08:41:42;8.82;;;3.10;;
32321;SDS011;61553;48.994;8.940;2023-10-08T08:44:08;9.90;;;3.60;;
32321;SDS011;61553;48.994;8.940;2023-10-08T08:46:35;8.85;;;3.83;;
32321;SDS011;61553;48.994;8.940;2023-10-08T08:49:03;7.10;;;3.58;;
32321;SDS011;61553;48.994;8.940;2023-10-08T08:51:35;8.18;;;3.30;;
32321;SDS011;61553;48.994;8.940;2023-10-08T08:54:01;7.40;;;3.55;;
32321;SDS011;61553;48.994;8.940;2023-10-08T08:56:32;7.53;;;3.58;;
32321;SDS011;61553;48.994;8.940;2023-10-08T08:58:59;8.25;;;3.22;;
32321;SDS011;61553;48.994;8.940;2023-10-08T09:01:25;7.70;;;3.50;;
32321;SDS011;61553;48.994;8.940;2023-10-08T09:03:58;7.00;;;3.70;;
32321;SDS011;61553;48.994;8.940;2023-10-08T09:06:33;7.55;;;3.80;;
32321;SDS011;61553;48.994;8.940;2023-10-08T09:09:02;7.57;;;3.08;;
32321;SDS011;61553;48.994;8.940;2023-10-08T09:11:58;10.75;;;3.75;;
32321;SDS011;61553;48.994;8.940;2023-10-08T09:14:24;9.25;;;3.80;;
32321;SDS011;61553;48.994;8.940;2023-10-08T09:16:52;9.52;;;4.07;;
32321;SDS011;61553;48.994;8.940;2023-10-08T09:19:19;8.82;;;3.38;;
32321;SDS011;61553;48.994;8.940;2023-10-08T09:22:03;6.63;;;3.45;;
32321;SDS011;61553;48.994;8.940;2023-10-08T09:24:33;9.02;;;3.50;;
32321;SDS011;61553;48.994;8.940;2023-10-08T09:27:01;9.68;;;3.85;;
32321;SDS011;61553;48.994;8.940;2023-10-08T09:29:28;8.50;;;3.42;;
32321;SDS011;61553;48.994;8.940;2023-10-08T09:31:58;7.70;;;3.70;;
32321;SDS011;61553;48.994;8.940;2023-10-08T09:34:30;7.93;;;3.63;;
32321;SDS011;61553;48.994;8.940;2023-10-08T09:36:58;8.88;;;3.70;;
32321;SDS011;61553;48.994;8.940;2023-10-08T09:39:33;11.77;;;3.80;;
32321;SDS011;61553;48.994;8.940;2023-10-08T09:41:59;7.75;;;3.50;;
32321;SDS011;61553;48.994;8.940;2023-10-08T09:44:29;8.55;;;3.40;;
32321;SDS011;61553;48.994;8.940;2023-10-08T09:47:02;8.43;;;3.55;;
32321;SDS011;61553;48.994;8.940;2023-10-08T09:49:30;7.63;;;3.30;;
32321;SDS011;61553;48.994;8.940;2023-10-08T09:52:00;6.50;;;3.28;;
32321;SDS011;61553;48.994;8.940;2023-10-08T09:54:28;7.05;;;3.15;;
32321;SDS011;61553;48.994;8.940;2023-10-08T09:56:59;8.15;;;3.45;;
32321;SDS011;61553;48.994;8.940;2023-10-08T09:59:28;9.48;;;4.20;;
32321;SDS011;61553;48.994;8.940;2023-10-08T10:01:54;9.77;;;3.78;;
32321;SDS011;61553;48.994;8.940;2023-10-08T10:04:24;8.00;;;3.53;;
32321;SDS011;61553;48.994;8.940;2023-10-08T10:06:50;9.77;;;3.10;;
32321;SDS011;61553;48.994;8.940;2023-10-08T10:09:23;7.07;;;3.13;;
32321;SDS011;61553;48.994;8.940;2023-10-08T10:11:50;6.30;;;3.28;;
32321;SDS011;61553;48.994;8.940;2023-10-08T10:14:18;10.50;;;3.42;;
32321;SDS011;61553;48.994;8.940;2023-10-08T10:19:39;7.30;;;3.60;;
32321;SDS011;61553;48.994;8.940;2023-10-08T10:22:10;7.68;;;3.40;;
32321;SDS011;61553;48.994;8.940;2023-10-08T10:24:40;7.78;;;3.47;;
32321;SDS011;61553;48.994;8.940;2023-10-08T10:27:13;6.30;;;3.17;;
32321;SDS011;61553;48.994;8.940;2023-10-08T10:29:43;5.85;;;3.05;;
32321;SDS011;61553;48.994;8.940;2023-10-08T10:32:16;8.05;;;3.42;;
32321;SDS011;61553;48.994;8.940;2023-10-08T10:34:42;11.17;;;3.53;;
32321;SDS011;61553;48.994;8.940;2023-10-08T10:37:09;12.00;;;3.88;;
32321;SDS011;61553;48.994;8.940;2023-10-08T10:39:52;8.32;;;3.63;;
32321;SDS011;61553;48.994;8.940;2023-10-08T10:42:24;8.75;;;3.42;;
32321;SDS011;61553;48.994;8.940;2023-10-08T10:44:53;7.90;;;3.33;;
32321;SDS011;61553;48.994;8.940;2023-10-08T10:47:21;8.70;;;3.70;;
32321;SDS011;61553;48.994;8.940;2023-10-08T10:49:50;8.70;;;3.65;;
32321;SDS011;61553;48.994;8.940;2023-10-08T10:52:39;7.78;;;3.58;;
32321;SDS011;61553;48.994;8.940;2023-10-08T10:55:26;6.70;;;3.55;;
32321;SDS011;61553;48.994;8.940;2023-10-08T10:57:58;7.95;;;3.55;;
32321;SDS011;61553;48.994;8.940;2023-10-08T11:00:37;6.00;;;3.25;;
32321;SDS011;61553;48.994;8.940;2023-10-08T11:03:06;9.63;;;3.88;;
32321;SDS011;61553;48.994;8.940;2023-10-08T11:05:51;8.23;;;3.80;;
32321;SDS011;61553;48.994;8.940;2023-10-08T11:08:25;7.47;;;3.67;;
32321;SDS011;61553;48.994;8.940;2023-10-08T11:10:59;7.35;;;4.00;;
32321;SDS011;61553;48.994;8.940;2023-10-08T11:13:30;7.57;;;3.90;;
32321;SDS011;61553;48.994;8.940;2023-10-08T11:16:03;8.63;;;4.00;;
32321;SDS011;61553;48.994;8.940;2023-10-08T11:18:32;8.15;;;3.80;;
32321;SDS011;61553;48.994;8.940;2023-10-08T11:21:05;8.50;;;4.00;;
32321;SDS011;61553;48.994;8.940;2023-10-08T11:23:44;10.00;;;3.95;;
32321;SDS011;61553;48.994;8.940;2023-10-08T11:26:24;11.95;;;4.32;;
32321;SDS011;61553;48.994;8.940;2023-10-08T11:29:04;12.48;;;5.03;;
32321;SDS011;61553;48.994;8.940;2023-10-08T11:31:39;10.57;;;4.22;;
32321;SDS011;61553;48.994;8.940;2023-10-08T11:34:07;8.68;;;4.15;;
32321;SDS011;61553;48.994;8.940;2023-10-08T11:36:38;11.30;;;3.78;;
32321;SDS011;61553;48.994;8.940;2023-10-08T11:39:24;15.57;;;4.68;;
32321;SDS011;61553;48.994;8.940;2023-10-08T11:41:58;8.82;;;4.07;;
32321;SDS011;61553;48.994;8.940;2023-10-08T11:44:29;11.90;;;4.57;;
32321;SDS011;61553;48.994;8.940;2023-10-08T11:46:56;13.80;;;4.72;;
32321;SDS011;61553;48.994;8.940;2023-10-08T11:49:30;10.63;;;4.05;;
32321;SDS011;61553;48.994;8.940;2023-10-08T11:52:01;12.68;;;4.47;;
32321;SDS011;61553;48.994;8.940;2023-10-08T11:54:29;12.77;;;4.28;;
32321;SDS011;61553;48.994;8.940;2023-10-08T11:56:58;9.13;;;4.30;;
32321;SDS011;61553;48.994;8.940;2023-10-08T11:59:28;10.63;;;4.28;;
32321;SDS011;61553;48.994;8.940;2023-10-08T12:01:54;11.23;;;4.03;;
32321;SDS011;61553;48.994;8.940;2023-10-08T12:04:21;8.35;;;4.35;;
32321;SDS011;61553;48.994;8.940;2023-10-08T12:06:48;16.85;;;4.65;;
32321;SDS011;61553;48.994;8.940;2023-10-08T12:09:17;11.77;;;4.32;;
32321;SDS011;61553;48.994;8.940;2023-10-08T12:11:47;12.35;;;4.18;;
32321;SDS011;61553;48.994;8.940;2023-10-08T12:14:14;12.30;;;4.03;;
32321;SDS011;61553;48.994;8.940;2023-10-08T12:16:40;11.85;;;4.53;;
32321;SDS011;61553;48.994;8.940;2023-10-08T12:19:07;14.88;;;4.45;;
32321;SDS011;61553;48.994;8.940;2023-10-08T12:21:42;8.35;;;3.63;;
32321;SDS011;61553;48.994;8.940;2023-10-08T12:24:11;11.45;;;4.22;;
32321;SDS011;61553;48.994;8.940;2023-10-08T12:26:37;11.35;;;4.18;;
32321;SDS011;61553;48.994;8.940;2023-10-08T12:29:13;12.20;;;4.20;;
32321;SDS011;61553;48.994;8.940;2023-10-08T12:31:42;14.40;;;4.03;;
32321;SDS011;61553;48.994;8.940;2023-10-08T12:34:13;11.35;;;4.05;;
32321;SDS011;61553;48.994;8.940;2023-10-08T12:36:39;14.50;;;4.00;;
32321;SDS011;61553;48.994;8.940;2023-10-08T12:39:05;10.18;;;4.10;;
32321;SDS011;61553;48.994;8.940;2023-10-08T12:41:41;11.65;;;4.38;;
32321;SDS011;61553;48.994;8.940;2023-10-08T12:44:09;12.50;;;4.10;;
32321;SDS011;61553;48.994;8.940;2023-10-08T12:46:35;12.95;;;4.47;;
32321;SDS011;61553;48.994;8.940;2023-10-08T12:49:01;14.30;;;4.85;;
32321;SDS011;61553;48.994;8.940;2023-10-08T12:51:28;13.57;;;4.70;;
32321;SDS011;61553;48.994;8.940;2023-10-08T12:53:58;13.93;;;4.13;;
32321;SDS011;61553;48.994;8.940;2023-10-08T12:56:36;12.65;;;4.88;;
32321;SDS011;61553;48.994;8.940;2023-10-08T12:59:13;12.90;;;4.15;;
32321;SDS011;61553;48.994;8.940;2023-10-08T13:04:16;13.95;;;4.55;;
32321;SDS011;61553;48.994;8.940;2023-10-08T13:06:51;15.43;;;4.00;;
32321;SDS011;61553;48.994;8.940;2023-10-08T13:09:17;16.33;;;4.82;;
32321;SDS011;61553;48.994;8.940;2023-10-08T13:11:43;17.08;;;4.20;;
32321;SDS011;61553;48.994;8.940;2023-10-08T13:14:11;19.00;;;4.65;;
32321;SDS011;61553;48.994;8.940;2023-10-08T13:16:37;12.20;;;4.70;;
32321;SDS011;61553;48.994;8.940;2023-10-08T13:19:03;14.95;;;5.13;;
32321;SDS011;61553;48.994;8.940;2023-10-08T13:21:30;12.77;;;4.13;;
32321;SDS011;61553;48.994;8.940;2023-10-08T13:23:57;10.70;;;3.92;;
32321;SDS011;61553;48.994;8.940;2023-10-08T13:26:25;14.70;;;3.80;;
32321;SDS011;61553;48.994;8.940;2023-10-08T13:28:56;12.93;;;4.13;;
32321;SDS011;61553;48.994;8.940;2023-10-08T13:31:23;13.98;;;4.78;;
32321;SDS011;61553;48.994;8.940;2023-10-08T13:33:51;11.43;;;3.60;;
32321;SDS011;61553;48.994;8.940;2023-10-08T13:36:21;10.40;;;3.40;;
32321;SDS011;61553;48.994;8.940;2023-10-08T13:38:49;13.32;;;4.18;;
32321;SDS011;61553;48.994;8.940;2023-10-08T13:41:16;11.02;;;3.83;;
32321;SDS011;61553;48.994;8.940;2023-10-08T13:43:47;16.83;;;6.10;;
32321;SDS011;61553;48.994;8.940;2023-10-08T13:46:17;12.63;;;3.90;;
32321;SDS011;61553;48.994;8.940;2023-10-08T13:48:45;15.10;;;3.90;;
32321;SDS011;61553;48.994;8.940;2023-10-08T13:51:19;9.65;;;3.70;;
32321;SDS011;61553;48.994;8.940;2023-10-08T13:53:57;14.25;;;4.22;;
32321;SDS011;61553;48.994;8.940;2023-10-08T13:56:28;12.35;;;4.28;;
32321;SDS011;61553;48.994;8.940;2023-10-08T13:58:57;12.23;;;3.88;;
32321;SDS011;61553;48.994;8.940;2023-10-08T14:04:08;13.25;;;3.90;;
32321;SDS011;61553;48.994;8.940;2023-10-08T14:06:34;9.60;;;3.88;;
32321;SDS011;61553;48.994;8.940;2023-10-08T14:09:02;16.20;;;4.90;;
32321;SDS011;61553;48.994;8.940;2023-10-08T14:11:36;13.23;;;4.70;;
32321;SDS011;61553;48.994;8.940;2023-10-08T14:14:03;12.40;;;4.45;;
32321;SDS011;61553;48.994;8.940;2023-10-08T14:16:37;10.45;;;3.92;;
32321;SDS011;61553;48.994;8.940;2023-10-08T14:19:12;10.85;;;4.63;;
32321;SDS011;61553;48.994;8.940;2023-10-08T14:21:40;10.30;;;4.40;;
32321;SDS011;61553;48.994;8.940;2023-10-08T14:24:21;13.02;;;4.18;;
32321;SDS011;61553;48.994;8.940;2023-10-08T14:26:49;8.80;;;3.75;;
32321;SDS011;61553;48.994;8.940;2023-10-08T14:29:19;10.75;;;4.30;;
32321;SDS011;61553;48.994;8.940;2023-10-08T14:31:49;12.20;;;4.35;;
32321;SDS011;61553;48.994;8.940;2023-10-08T14:34:16;12.25;;;4.25;;
32321;SDS011;61553;48.994;8.940;2023-10-08T14:36:42;9.57;;;4.25;;
32321;SDS011;61553;48.994;8.940;2023-10-08T14:39:31;15.25;;;4.97;;
32321;SDS011;61553;48.994;8.940;2023-10-08T14:42:15;12.30;;;4.63;;
32321;SDS011;61553;48.994;8.940;2023-10-08T14:45:00;14.98;;;4.75;;
32321;SDS011;61553;48.994;8.940;2023-10-08T14:47:27;15.48;;;3.92;;
32321;SDS011;61553;48.994;8.940;2023-10-08T14:49:53;14.52;;;4.43;;
32321;SDS011;61553;48.994;8.940;2023-10-08T14:52:19;11.93;;;4.82;;
32321;SDS011;61553;48.994;8.940;2023-10-08T14:54:45;18.33;;;5.18;;
32321;SDS011;61553;48.994;8.940;2023-10-08T14:57:11;15.68;;;4.38;;
32321;SDS011;61553;48.994;8.940;2023-10-08T14:59:39;14.02;;;4.03;;
32321;SDS011;61553;48.994;8.940;2023-10-08T15:02:06;10.65;;;4.03;;
32321;SDS011;61553;48.994;8.940;2023-10-08T15:04:35;12.98;;;4.25;;
32321;SDS011;61553;48.994;8.940;2023-10-08T15:07:04;11.65;;;4.40;;
32321;SDS011;61553;48.994;8.940;2023-10-08T15:09:35;7.70;;;3.83;;
32321;SDS011;61553;48.994;8.940;2023-10-08T15:12:02;14.88;;;4.53;;
32321;SDS011;61553;48.994;8.940;2023-10-08T15:14:29;13.02;;;4.70;;
32321;SDS011;61553;48.994;8.940;2023-10-08T15:16:56;13.38;;;4.82;;
32321;SDS011;61553;48.994;8.940;2023-10-08T15:19:25;11.15;;;4.47;;
32321;SDS011;61553;48.994;8.940;2023-10-08T15:21:51;17.25;;;6.28;;